sensor_id;sensor_type;location;lat;lon;timestamp;pressure;altitude;pressure_sealevel;temperature;humidity
15674;BME280;7937;48.090;16.212;2024-01-16T00:02:10;96632.00;;;-0.36;84.22
15674;BME280;7937;48.090;16.212;2024-01-16T00:05:13;96634.56;;;-0.56;85.76
15674;BME280;7937;48.090;16.212;2024-01-16T00:08:16;96624.34;;;-0.44;84.33
15674;BME280;7937;48.090;16.212;2024-01-16T00:11:18;96630.78;;;-0.40;82.38
15674;BME280;7937;48.090;16.212;2024-01-16T00:14:21;96615.06;;;-0.40;82.31
15674;BME280;7937;48.090;16.212;2024-01-16T00:17:23;96627.13;;;-0.45;80.83
15674;BME280;7937;48.090;16.212;2024-01-16T00:20:26;96656.91;;;-0.53;80.24
15674;BME280;7937;48.090;16.212;2024-01-16T00:23:29;96646.63;;;-0.61;80.57
15674;BME280;7937;48.090;16.212;2024-01-16T00:26:35;96611.19;;;-0.70;79.08
15674;BME280;7937;48.090;16.212;2024-01-16T00:29:38;96647.47;;;-0.41;79.75
15674;BME280;7937;48.090;16.212;2024-01-16T00:32:40;96634.41;;;-0.41;79.33
15674;BME280;7937;48.090;16.212;2024-01-16T00:35:43;96664.19;;;-0.42;79.36
15674;BME280;7937;48.090;16.212;2024-01-16T00:38:46;96671.50;;;-0.17;77.55
15674;BME280;7937;48.090;16.212;2024-01-16T00:41:48;96670.66;;;-0.38;79.70
15674;BME280;7937;48.090;16.212;2024-01-16T00:44:51;96688.38;;;-0.33;79.39
15674;BME280;7937;48.090;16.212;2024-01-16T00:47:54;96680.47;;;-0.40;79.99
15674;BME280;7937;48.090;16.212;2024-01-16T00:50:57;96662.91;;;-0.59;79.98
15674;BME280;7937;48.090;16.212;2024-01-16T00:53:59;96696.66;;;-0.23;77.38
15674;BME280;7937;48.090;16.212;2024-01-16T00:57:02;96683.72;;;-0.31;78.48
15674;BME280;7937;48.090;16.212;2024-01-16T01:00:05;96698.25;;;-0.22;76.86
15674;BME280;7937;48.090;16.212;2024-01-16T01:03:08;96720.41;;;-0.24;75.19
15674;BME280;7937;48.090;16.212;2024-01-16T01:06:11;96695.63;;;-0.29;76.63
15674;BME280;7937;48.090;16.212;2024-01-16T01:09:14;96709.03;;;-0.52;77.95
15674;BME280;7937;48.090;16.212;2024-01-16T01:12:17;96701.44;;;-0.33;75.44
15674;BME280;7937;48.090;16.212;2024-01-16T01:15:20;96695.56;;;-0.42;75.67
15674;BME280;7937;48.090;16.212;2024-01-16T01:18:23;96722.78;;;-0.30;75.16
15674;BME280;7937;48.090;16.212;2024-01-16T01:21:26;96719.56;;;-0.32;75.83
15674;BME280;7937;48.090;16.212;2024-01-16T01:24:29;96722.41;;;-0.20;74.14
15674;BME280;7937;48.090;16.212;2024-01-16T01:27:31;96706.56;;;-0.60;76.00
15674;BME280;7937;48.090;16.212;2024-01-16T01:30:34;96736.13;;;-0.66;76.31
15674;BME280;7937;48.090;16.212;2024-01-16T01:33:37;96715.41;;;-0.67;76.72
15674;BME280;7937;48.090;16.212;2024-01-16T01:36:39;96732.00;;;-0.40;74.19
15674;BME280;7937;48.090;16.212;2024-01-16T01:39:42;96732.94;;;-0.61;74.41
15674;BME280;7937;48.090;16.212;2024-01-16T01:42:44;96750.72;;;-0.43;72.42
15674;BME280;7937;48.090;16.212;2024-01-16T01:49:08;96744.81;;;-0.59;73.88
15674;BME280;7937;48.090;16.212;2024-01-16T01:52:11;96768.09;;;-0.70;74.67
15674;BME280;7937;48.090;16.212;2024-01-16T01:55:14;96791.13;;;-0.53;73.17
15674;BME280;7937;48.090;16.212;2024-01-16T01:58:17;96741.88;;;-0.84;73.64
15674;BME280;7937;48.090;16.212;2024-01-16T02:01:20;96792.44;;;-0.70;74.86
15674;BME280;7937;48.090;16.212;2024-01-16T02:04:25;96774.78;;;-0.61;73.36
15674;BME280;7937;48.090;16.212;2024-01-16T02:07:28;96782.41;;;-0.60;72.45
15674;BME280;7937;48.090;16.212;2024-01-16T02:10:32;96767.16;;;-0.56;72.09
15674;BME280;7937;48.090;16.212;2024-01-16T02:13:34;96764.66;;;-0.71;73.55
15674;BME280;7937;48.090;16.212;2024-01-16T02:16:39;96773.91;;;-0.75;72.94
15674;BME280;7937;48.090;16.212;2024-01-16T02:19:41;96780.84;;;-0.89;74.74
15674;BME280;7937;48.090;16.212;2024-01-16T02:22:47;96791.66;;;-0.98;76.66
15674;BME280;7937;48.090;16.212;2024-01-16T02:25:51;96802.94;;;-0.98;75.61
15674;BME280;7937;48.090;16.212;2024-01-16T02:28:54;96793.41;;;-1.06;75.94
15674;BME280;7937;48.090;16.212;2024-01-16T02:31:56;96813.59;;;-1.21;77.00
15674;BME280;7937;48.090;16.212;2024-01-16T02:34:59;96827.28;;;-0.91;74.81
15674;BME280;7937;48.090;16.212;2024-01-16T02:38:02;96850.22;;;-1.14;77.50
15674;BME280;7937;48.090;16.212;2024-01-16T02:41:04;96843.06;;;-1.06;76.44
15674;BME280;7937;48.090;16.212;2024-01-16T02:44:07;96847.28;;;-0.83;75.20
15674;BME280;7937;48.090;16.212;2024-01-16T02:47:09;96852.63;;;-0.91;75.46
15674;BME280;7937;48.090;16.212;2024-01-16T02:50:12;96858.16;;;-1.08;77.76
15674;BME280;7937;48.090;16.212;2024-01-16T02:53:15;96846.44;;;-1.12;77.85
15674;BME280;7937;48.090;16.212;2024-01-16T02:56:18;96799.81;;;-1.36;76.92
15674;BME280;7937;48.090;16.212;2024-01-16T02:59:20;96863.47;;;-0.94;76.95
15674;BME280;7937;48.090;16.212;2024-01-16T03:02:23;96863.53;;;-1.09;77.31
15674;BME280;7937;48.090;16.212;2024-01-16T03:05:25;96855.56;;;-1.01;76.45
15674;BME280;7937;48.090;16.212;2024-01-16T03:08:28;96866.22;;;-1.02;75.78
15674;BME280;7937;48.090;16.212;2024-01-16T03:11:31;96862.38;;;-1.07;75.82
15674;BME280;7937;48.090;16.212;2024-01-16T03:14:35;96865.72;;;-0.91;75.20
15674;BME280;7937;48.090;16.212;2024-01-16T03:17:39;96843.88;;;-1.05;74.70
15674;BME280;7937;48.090;16.212;2024-01-16T03:20:42;96847.25;;;-1.11;76.25
15674;BME280;7937;48.090;16.212;2024-01-16T03:23:45;96826.84;;;-1.22;74.75
15674;BME280;7937;48.090;16.212;2024-01-16T03:26:48;96855.41;;;-1.21;76.84
15674;BME280;7937;48.090;16.212;2024-01-16T03:29:50;96852.34;;;-1.24;77.89
15674;BME280;7937;48.090;16.212;2024-01-16T03:32:53;96852.50;;;-1.33;77.34
15674;BME280;7937;48.090;16.212;2024-01-16T03:35:56;96841.63;;;-1.58;77.96
15674;BME280;7937;48.090;16.212;2024-01-16T03:38:58;96873.47;;;-1.47;78.11
15674;BME280;7937;48.090;16.212;2024-01-16T03:42:01;96873.25;;;-1.24;76.75
15674;BME280;7937;48.090;16.212;2024-01-16T03:45:05;96892.16;;;-1.44;78.03
15674;BME280;7937;48.090;16.212;2024-01-16T03:48:08;96890.78;;;-1.18;75.79
15674;BME280;7937;48.090;16.212;2024-01-16T03:51:11;96898.03;;;-1.20;76.44
15674;BME280;7937;48.090;16.212;2024-01-16T03:54:17;96885.72;;;-1.26;76.13
15674;BME280;7937;48.090;16.212;2024-01-16T03:57:20;96891.56;;;-1.03;74.35
15674;BME280;7937;48.090;16.212;2024-01-16T04:00:22;96906.41;;;-1.25;75.46
15674;BME280;7937;48.090;16.212;2024-01-16T04:03:25;96909.78;;;-1.31;75.50
15674;BME280;7937;48.090;16.212;2024-01-16T04:06:27;96913.59;;;-1.12;74.20
15674;BME280;7937;48.090;16.212;2024-01-16T04:09:31;96914.84;;;-1.08;74.40
15674;BME280;7937;48.090;16.212;2024-01-16T04:12:33;96910.22;;;-1.06;73.56
15674;BME280;7937;48.090;16.212;2024-01-16T04:15:39;96939.06;;;-1.14;73.90
15674;BME280;7937;48.090;16.212;2024-01-16T04:18:43;96955.25;;;-1.25;75.06
15674;BME280;7937;48.090;16.212;2024-01-16T04:21:46;96938.41;;;-1.01;72.91
15674;BME280;7937;48.090;16.212;2024-01-16T04:24:48;96929.44;;;-1.14;72.74
15674;BME280;7937;48.090;16.212;2024-01-16T04:27:51;96939.47;;;-1.17;73.47
15674;BME280;7937;48.090;16.212;2024-01-16T04:30:53;96944.69;;;-1.17;73.22
15674;BME280;7937;48.090;16.212;2024-01-16T04:33:56;96910.88;;;-1.19;73.64
15674;BME280;7937;48.090;16.212;2024-01-16T04:36:59;96932.94;;;-1.28;73.82
15674;BME280;7937;48.090;16.212;2024-01-16T04:40:01;96920.97;;;-0.94;71.28
15674;BME280;7937;48.090;16.212;2024-01-16T04:43:04;96930.88;;;-0.90;70.08
15674;BME280;7937;48.090;16.212;2024-01-16T04:46:07;96891.00;;;-1.20;71.51
15674;BME280;7937;48.090;16.212;2024-01-16T04:49:10;96905.00;;;-1.27;72.96
15674;BME280;7937;48.090;16.212;2024-01-16T04:52:13;96919.44;;;-1.32;72.52
15674;BME280;7937;48.090;16.212;2024-01-16T04:55:16;96923.28;;;-1.27;73.64
15674;BME280;7937;48.090;16.212;2024-01-16T04:58:19;96896.34;;;-1.28;71.19
15674;BME280;7937;48.090;16.212;2024-01-16T05:01:21;96914.31;;;-0.97;69.82
15674;BME280;7937;48.090;16.212;2024-01-16T05:04:24;96920.34;;;-0.96;69.67
15674;BME280;7937;48.090;16.212;2024-01-16T05:07:26;96902.63;;;-1.01;69.42
15674;BME280;7937;48.090;16.212;2024-01-16T05:10:29;96899.63;;;-1.19;71.29
15674;BME280;7937;48.090;16.212;2024-01-16T05:13:33;96922.84;;;-1.10;69.59
15674;BME280;7937;48.090;16.212;2024-01-16T05:16:35;96906.13;;;-1.37;70.52
15674;BME280;7937;48.090;16.212;2024-01-16T05:19:38;96908.22;;;-0.83;66.53
15674;BME280;7937;48.090;16.212;2024-01-16T05:22:41;96922.28;;;-1.05;68.04
15674;BME280;7937;48.090;16.212;2024-01-16T05:25:44;96910.53;;;-1.16;67.89
15674;BME280;7937;48.090;16.212;2024-01-16T05:28:47;96906.34;;;-0.89;65.21
15674;BME280;7937;48.090;16.212;2024-01-16T05:31:50;96926.75;;;-0.77;65.99
15674;BME280;7937;48.090;16.212;2024-01-16T05:34:52;96932.13;;;-0.86;65.61
15674;BME280;7937;48.090;16.212;2024-01-16T05:37:55;96939.84;;;-0.77;64.68
15674;BME280;7937;48.090;16.212;2024-01-16T05:41:01;96948.38;;;-0.69;63.72
15674;BME280;7937;48.090;16.212;2024-01-16T05:44:03;96965.34;;;-0.80;63.84
15674;BME280;7937;48.090;16.212;2024-01-16T05:47:06;96954.78;;;-0.93;67.79
15674;BME280;7937;48.090;16.212;2024-01-16T05:50:09;96945.38;;;-1.09;66.43
15674;BME280;7937;48.090;16.212;2024-01-16T05:53:12;96964.91;;;-1.05;65.61
15674;BME280;7937;48.090;16.212;2024-01-16T05:56:14;96971.25;;;-1.14;67.45
15674;BME280;7937;48.090;16.212;2024-01-16T05:59:17;96956.81;;;-1.10;66.16
15674;BME280;7937;48.090;16.212;2024-01-16T06:02:19;96970.34;;;-1.06;66.15
15674;BME280;7937;48.090;16.212;2024-01-16T06:05:22;96955.69;;;-1.22;67.28
15674;BME280;7937;48.090;16.212;2024-01-16T06:08:25;96988.59;;;-1.27;67.74
15674;BME280;7937;48.090;16.212;2024-01-16T06:11:34;96987.28;;;-1.02;65.51
15674;BME280;7937;48.090;16.212;2024-01-16T06:14:40;97032.50;;;-1.01;66.76
15674;BME280;7937;48.090;16.212;2024-01-16T06:17:43;97010.59;;;-0.79;63.97
15674;BME280;7937;48.090;16.212;2024-01-16T06:20:45;97011.56;;;-0.87;65.46
15674;BME280;7937;48.090;16.212;2024-01-16T06:23:49;97008.44;;;-0.97;64.89
15674;BME280;7937;48.090;16.212;2024-01-16T06:26:52;96999.28;;;-0.86;63.31
15674;BME280;7937;48.090;16.212;2024-01-16T06:29:54;97002.56;;;-0.99;66.12
15674;BME280;7937;48.090;16.212;2024-01-16T06:32:57;97006.06;;;-1.13;66.19
15674;BME280;7937;48.090;16.212;2024-01-16T06:36:00;97020.47;;;-1.17;65.78
15674;BME280;7937;48.090;16.212;2024-01-16T06:39:03;97031.16;;;-0.76;62.29
15674;BME280;7937;48.090;16.212;2024-01-16T06:42:06;97024.72;;;-0.95;63.67
15674;BME280;7937;48.090;16.212;2024-01-16T06:45:12;97035.03;;;-0.93;63.80
15674;BME280;7937;48.090;16.212;2024-01-16T06:48:15;97032.81;;;-0.90;62.81
15674;BME280;7937;48.090;16.212;2024-01-16T06:51:18;97035.78;;;-0.57;60.98
15674;BME280;7937;48.090;16.212;2024-01-16T06:54:20;97053.28;;;-0.79;61.65
15674;BME280;7937;48.090;16.212;2024-01-16T06:57:25;97058.66;;;-0.80;61.78
15674;BME280;7937;48.090;16.212;2024-01-16T07:00:28;97061.69;;;-0.83;61.84
15674;BME280;7937;48.090;16.212;2024-01-16T07:03:30;97039.91;;;-0.69;60.85
15674;BME280;7937;48.090;16.212;2024-01-16T07:06:33;97046.25;;;-0.57;60.61
15674;BME280;7937;48.090;16.212;2024-01-16T07:09:35;97050.13;;;-0.89;62.66
15674;BME280;7937;48.090;16.212;2024-01-16T07:12:38;97064.31;;;-0.98;62.97
15674;BME280;7937;48.090;16.212;2024-01-16T07:15:40;97052.84;;;-0.61;59.77
15674;BME280;7937;48.090;16.212;2024-01-16T07:18:43;97028.84;;;-1.07;62.15
15674;BME280;7937;48.090;16.212;2024-01-16T07:21:49;97062.78;;;-0.92;63.11
15674;BME280;7937;48.090;16.212;2024-01-16T07:24:51;97063.94;;;-0.95;63.65
15674;BME280;7937;48.090;16.212;2024-01-16T07:27:54;97072.19;;;-0.76;61.59
15674;BME280;7937;48.090;16.212;2024-01-16T07:30:56;97067.63;;;-0.89;63.42
15674;BME280;7937;48.090;16.212;2024-01-16T07:33:59;97058.25;;;-0.41;60.91
15674;BME280;7937;48.090;16.212;2024-01-16T07:37:02;97076.25;;;-0.53;61.19
15674;BME280;7937;48.090;16.212;2024-01-16T07:40:05;97068.59;;;-0.75;63.25
15674;BME280;7937;48.090;16.212;2024-01-16T07:43:11;97085.03;;;-0.60;62.33
15674;BME280;7937;48.090;16.212;2024-01-16T07:46:14;97084.22;;;-0.61;62.69
15674;BME280;7937;48.090;16.212;2024-01-16T07:49:16;97077.44;;;-0.55;61.27
15674;BME280;7937;48.090;16.212;2024-01-16T07:52:19;97098.66;;;-0.65;62.65
15674;BME280;7937;48.090;16.212;2024-01-16T07:55:21;97066.50;;;-0.44;60.68
15674;BME280;7937;48.090;16.212;2024-01-16T07:58:26;97072.16;;;-0.40;60.61
15674;BME280;7937;48.090;16.212;2024-01-16T08:01:28;97091.47;;;-0.41;60.05
15674;BME280;7937;48.090;16.212;2024-01-16T08:04:31;97110.09;;;-0.30;60.08
15674;BME280;7937;48.090;16.212;2024-01-16T08:07:34;97086.38;;;-0.28;59.38
15674;BME280;7937;48.090;16.212;2024-01-16T08:10:37;97100.81;;;-0.32;60.06
15674;BME280;7937;48.090;16.212;2024-01-16T08:13:39;97085.00;;;-0.24;59.32
15674;BME280;7937;48.090;16.212;2024-01-16T08:16:42;97088.22;;;-0.22;60.02
15674;BME280;7937;48.090;16.212;2024-01-16T08:19:44;97085.66;;;-0.15;59.07
15674;BME280;7937;48.090;16.212;2024-01-16T08:22:47;97091.56;;;-0.49;60.66
15674;BME280;7937;48.090;16.212;2024-01-16T08:25:52;97097.44;;;-0.47;61.57
15674;BME280;7937;48.090;16.212;2024-01-16T08:28:55;97095.81;;;-0.27;59.92
15674;BME280;7937;48.090;16.212;2024-01-16T08:31:57;97094.72;;;-0.39;60.87
15674;BME280;7937;48.090;16.212;2024-01-16T08:34:59;97105.75;;;-0.44;61.15
15674;BME280;7937;48.090;16.212;2024-01-16T08:38:03;97099.94;;;-0.39;61.16
15674;BME280;7937;48.090;16.212;2024-01-16T08:41:05;97084.13;;;-0.53;62.10
15674;BME280;7937;48.090;16.212;2024-01-16T08:44:08;97111.22;;;-0.39;62.28
15674;BME280;7937;48.090;16.212;2024-01-16T08:47:11;97113.59;;;-0.44;63.38
15674;BME280;7937;48.090;16.212;2024-01-16T08:50:13;97136.09;;;-0.28;61.89
15674;BME280;7937;48.090;16.212;2024-01-16T08:53:16;97122.63;;;-0.04;59.73
15674;BME280;7937;48.090;16.212;2024-01-16T08:56:19;97133.25;;;-0.05;58.99
15674;BME280;7937;48.090;16.212;2024-01-16T08:59:23;97113.47;;;-0.14;59.16
15674;BME280;7937;48.090;16.212;2024-01-16T09:02:26;97118.31;;;0.10;58.64
15674;BME280;7937;48.090;16.212;2024-01-16T09:05:31;97138.00;;;0.34;58.47
15674;BME280;7937;48.090;16.212;2024-01-16T09:08:34;97133.53;;;0.28;58.43
15674;BME280;7937;48.090;16.212;2024-01-16T09:11:42;97132.28;;;0.24;59.28
15674;BME280;7937;48.090;16.212;2024-01-16T09:14:45;97144.56;;;0.45;58.06
15674;BME280;7937;48.090;16.212;2024-01-16T09:17:47;97140.78;;;0.54;56.63
15674;BME280;7937;48.090;16.212;2024-01-16T09:20:50;97142.25;;;0.63;56.64
15674;BME280;7937;48.090;16.212;2024-01-16T09:23:53;97139.63;;;0.63;56.66
15674;BME280;7937;48.090;16.212;2024-01-16T09:26:55;97147.81;;;0.82;55.59
15674;BME280;7937;48.090;16.212;2024-01-16T09:29:58;97152.84;;;0.83;55.70
15674;BME280;7937;48.090;16.212;2024-01-16T09:33:00;97153.06;;;0.82;56.81
15674;BME280;7937;48.090;16.212;2024-01-16T09:36:04;97137.91;;;0.77;55.37
15674;BME280;7937;48.090;16.212;2024-01-16T09:39:07;97156.00;;;1.07;54.85
15674;BME280;7937;48.090;16.212;2024-01-16T09:42:20;97166.31;;;1.08;54.76
15674;BME280;7937;48.090;16.212;2024-01-16T09:45:24;97156.81;;;1.07;53.70
15674;BME280;7937;48.090;16.212;2024-01-16T09:48:28;97166.00;;;1.31;54.69
15674;BME280;7937;48.090;16.212;2024-01-16T09:51:33;97155.91;;;1.28;54.78
15674;BME280;7937;48.090;16.212;2024-01-16T09:54:35;97166.25;;;1.43;54.10
15674;BME280;7937;48.090;16.212;2024-01-16T09:57:45;97163.44;;;1.44;55.05
15674;BME280;7937;48.090;16.212;2024-01-16T10:00:49;97167.47;;;1.40;55.87
15674;BME280;7937;48.090;16.212;2024-01-16T10:03:53;97151.50;;;1.42;53.48
15674;BME280;7937;48.090;16.212;2024-01-16T10:06:56;97168.13;;;1.49;53.81
15674;BME280;7937;48.090;16.212;2024-01-16T10:10:01;97154.88;;;1.22;53.49
15674;BME280;7937;48.090;16.212;2024-01-16T10:13:03;97150.84;;;1.20;54.42
15674;BME280;7937;48.090;16.212;2024-01-16T10:16:06;97151.66;;;1.27;53.96
15674;BME280;7937;48.090;16.212;2024-01-16T10:19:09;97152.09;;;1.31;55.57
15674;BME280;7937;48.090;16.212;2024-01-16T10:22:12;97157.41;;;1.44;53.63
15674;BME280;7937;48.090;16.212;2024-01-16T10:25:14;97170.47;;;1.37;52.11
15674;BME280;7937;48.090;16.212;2024-01-16T10:28:22;97171.31;;;1.44;51.57
15674;BME280;7937;48.090;16.212;2024-01-16T10:31:29;97174.91;;;1.30;52.40
15674;BME280;7937;48.090;16.212;2024-01-16T10:34:33;97171.91;;;1.33;53.39
15674;BME280;7937;48.090;16.212;2024-01-16T10:37:49;97162.97;;;1.27;53.39
15674;BME280;7937;48.090;16.212;2024-01-16T10:41:13;97160.25;;;1.49;52.89
15674;BME280;7937;48.090;16.212;2024-01-16T10:44:16;97137.38;;;1.36;53.51
15674;BME280;7937;48.090;16.212;2024-01-16T10:47:21;97175.41;;;1.60;52.96
15674;BME280;7937;48.090;16.212;2024-01-16T10:50:24;97153.22;;;1.76;51.84
15674;BME280;7937;48.090;16.212;2024-01-16T10:53:29;97157.47;;;1.77;51.16
15674;BME280;7937;48.090;16.212;2024-01-16T10:56:35;97147.00;;;1.90;51.21
15674;BME280;7937;48.090;16.212;2024-01-16T11:02:54;97137.84;;;1.66;51.80
15674;BME280;7937;48.090;16.212;2024-01-16T11:06:01;97155.25;;;1.80;51.03
15674;BME280;7937;48.090;16.212;2024-01-16T11:09:07;97137.50;;;1.96;50.68
15674;BME280;7937;48.090;16.212;2024-01-16T11:12:10;97144.78;;;2.00;51.66
15674;BME280;7937;48.090;16.212;2024-01-16T11:15:19;97070.41;;;1.67;51.99
15674;BME280;7937;48.090;16.212;2024-01-16T11:18:22;97143.19;;;2.13;51.45
15674;BME280;7937;48.090;16.212;2024-01-16T11:21:25;97144.59;;;2.09;50.79
15674;BME280;7937;48.090;16.212;2024-01-16T11:24:28;97160.97;;;2.30;50.38
15674;BME280;7937;48.090;16.212;2024-01-16T11:27:31;97160.56;;;2.20;52.30
15674;BME280;7937;48.090;16.212;2024-01-16T11:30:33;97155.34;;;2.27;50.31
15674;BME280;7937;48.090;16.212;2024-01-16T11:36:51;97152.91;;;2.12;48.29
15674;BME280;7937;48.090;16.212;2024-01-16T11:47:01;97147.44;;;2.14;48.70
15674;BME280;7937;48.090;16.212;2024-01-16T11:50:12;97147.81;;;1.84;50.39
15674;BME280;7937;48.090;16.212;2024-01-16T11:53:33;97146.16;;;1.76;50.69
15674;BME280;7937;48.090;16.212;2024-01-16T11:57:04;97136.88;;;1.80;48.29
15674;BME280;7937;48.090;16.212;2024-01-16T12:00:18;97116.69;;;1.74;48.39
15674;BME280;7937;48.090;16.212;2024-01-16T12:03:22;97136.88;;;1.87;48.30
15674;BME280;7937;48.090;16.212;2024-01-16T12:06:36;97103.97;;;1.91;47.24
15674;BME280;7937;48.090;16.212;2024-01-16T12:09:42;97123.78;;;1.94;47.34
15674;BME280;7937;48.090;16.212;2024-01-16T12:12:46;97120.13;;;1.95;48.26
15674;BME280;7937;48.090;16.212;2024-01-16T12:15:59;97119.34;;;1.88;46.39
15674;BME280;7937;48.090;16.212;2024-01-16T12:19:06;97124.78;;;1.93;48.12
15674;BME280;7937;48.090;16.212;2024-01-16T12:22:13;97128.59;;;1.97;46.97
15674;BME280;7937;48.090;16.212;2024-01-16T12:25:19;97121.94;;;2.01;46.31
15674;BME280;7937;48.090;16.212;2024-01-16T12:28:22;97121.34;;;1.99;46.68
15674;BME280;7937;48.090;16.212;2024-01-16T12:31:34;97121.78;;;2.02;45.94
15674;BME280;7937;48.090;16.212;2024-01-16T12:34:45;97110.84;;;1.92;48.82
15674;BME280;7937;48.090;16.212;2024-01-16T12:37:58;97114.47;;;2.11;47.40
15674;BME280;7937;48.090;16.212;2024-01-16T12:41:02;97089.22;;;2.10;44.55
15674;BME280;7937;48.090;16.212;2024-01-16T12:44:08;97097.91;;;2.04;45.20
15674;BME280;7937;48.090;16.212;2024-01-16T12:47:18;97104.38;;;2.08;45.65
15674;BME280;7937;48.090;16.212;2024-01-16T12:50:22;97105.19;;;2.15;45.36
15674;BME280;7937;48.090;16.212;2024-01-16T12:53:25;97113.28;;;2.14;45.20
15674;BME280;7937;48.090;16.212;2024-01-16T12:56:28;97102.75;;;1.87;47.09
15674;BME280;7937;48.090;16.212;2024-01-16T12:59:39;97113.66;;;1.77;46.59
15674;BME280;7937;48.090;16.212;2024-01-16T13:02:49;97099.50;;;1.72;47.32
15674;BME280;7937;48.090;16.212;2024-01-16T13:05:57;97099.09;;;1.68;47.95
15674;BME280;7937;48.090;16.212;2024-01-16T13:09:10;97099.09;;;1.68;46.49
15674;BME280;7937;48.090;16.212;2024-01-16T13:12:21;97102.53;;;1.69;45.88
15674;BME280;7937;48.090;16.212;2024-01-16T13:15:24;97097.50;;;1.74;45.16
15674;BME280;7937;48.090;16.212;2024-01-16T13:18:29;97097.47;;;1.67;46.31
15674;BME280;7937;48.090;16.212;2024-01-16T13:21:32;97102.72;;;1.54;46.17
15674;BME280;7937;48.090;16.212;2024-01-16T13:24:34;97102.69;;;1.47;46.13
15674;BME280;7937;48.090;16.212;2024-01-16T13:27:38;97098.69;;;1.58;45.86
15674;BME280;7937;48.090;16.212;2024-01-16T13:30:44;97096.28;;;1.63;46.12
15674;BME280;7937;48.090;16.212;2024-01-16T13:33:49;97097.47;;;1.67;47.28
15674;BME280;7937;48.090;16.212;2024-01-16T13:36:52;97103.94;;;1.71;48.13
15674;BME280;7937;48.090;16.212;2024-01-16T13:40:16;97099.91;;;1.75;48.33
15674;BME280;7937;48.090;16.212;2024-01-16T13:43:24;97089.78;;;1.72;47.07
15674;BME280;7937;48.090;16.212;2024-01-16T13:46:27;97101.13;;;1.86;45.48
15674;BME280;7937;48.090;16.212;2024-01-16T13:49:49;97089.03;;;1.78;45.58
15674;BME280;7937;48.090;16.212;2024-01-16T13:52:52;97091.63;;;1.72;45.33
15674;BME280;7937;48.090;16.212;2024-01-16T13:55:56;97082.09;;;1.51;47.65
15674;BME280;7937;48.090;16.212;2024-01-16T13:59:00;97093.22;;;1.53;49.14
15674;BME280;7937;48.090;16.212;2024-01-16T14:02:03;97093.59;;;1.43;50.81
15674;BME280;7937;48.090;16.212;2024-01-16T14:05:12;97083.84;;;1.24;51.89
15674;BME280;7937;48.090;16.212;2024-01-16T14:08:18;97092.72;;;1.23;53.86
15674;BME280;7937;48.090;16.212;2024-01-16T14:11:20;97095.09;;;1.11;51.48
15674;BME280;7937;48.090;16.212;2024-01-16T14:14:23;97093.31;;;1.18;50.12
15674;BME280;7937;48.090;16.212;2024-01-16T14:17:25;97095.09;;;1.05;52.01
15674;BME280;7937;48.090;16.212;2024-01-16T14:20:28;97097.28;;;1.01;54.05
15674;BME280;7937;48.090;16.212;2024-01-16T14:23:31;97094.72;;;1.14;50.10
15674;BME280;7937;48.090;16.212;2024-01-16T14:26:34;97090.66;;;1.05;52.67
15674;BME280;7937;48.090;16.212;2024-01-16T14:29:37;97070.41;;;0.86;53.78
15674;BME280;7937;48.090;16.212;2024-01-16T14:32:43;97096.03;;;0.90;54.15
15674;BME280;7937;48.090;16.212;2024-01-16T14:35:46;97087.53;;;0.88;55.74
15674;BME280;7937;48.090;16.212;2024-01-16T14:38:49;97098.78;;;0.75;58.03
15674;BME280;7937;48.090;16.212;2024-01-16T14:41:53;97091.47;;;0.64;58.80
15674;BME280;7937;48.090;16.212;2024-01-16T14:44:56;97090.19;;;0.54;60.53
15674;BME280;7937;48.090;16.212;2024-01-16T14:47:59;97088.53;;;0.46;57.41
15674;BME280;7937;48.090;16.212;2024-01-16T14:51:02;97085.28;;;0.44;60.25
15674;BME280;7937;48.090;16.212;2024-01-16T14:54:05;97081.63;;;0.38;58.89
15674;BME280;7937;48.090;16.212;2024-01-16T14:57:07;97068.84;;;0.29;56.73
15674;BME280;7937;48.090;16.212;2024-01-16T15:00:11;97067.78;;;0.16;60.82
15674;BME280;7937;48.090;16.212;2024-01-16T15:03:17;97088.75;;;0.16;62.15
15674;BME280;7937;48.090;16.212;2024-01-16T15:06:21;97082.16;;;-0.01;62.66
15674;BME280;7937;48.090;16.212;2024-01-16T15:09:24;97073.88;;;-0.05;64.39
15674;BME280;7937;48.090;16.212;2024-01-16T15:12:27;97072.19;;;-0.12;63.60
15674;BME280;7937;48.090;16.212;2024-01-16T15:15:30;97091.69;;;-0.15;64.62
15674;BME280;7937;48.090;16.212;2024-01-16T15:18:32;97100.31;;;-0.21;64.37
15674;BME280;7937;48.090;16.212;2024-01-16T15:21:35;97103.69;;;-0.27;64.67
15674;BME280;7937;48.090;16.212;2024-01-16T15:24:39;97098.56;;;-0.35;65.28
15674;BME280;7937;48.090;16.212;2024-01-16T15:27:42;97100.75;;;-0.39;65.90
15674;BME280;7937;48.090;16.212;2024-01-16T15:30:46;97104.91;;;-0.44;66.75
15674;BME280;7937;48.090;16.212;2024-01-16T15:33:49;97115.13;;;-0.49;67.19
15674;BME280;7937;48.090;16.212;2024-01-16T15:36:52;97119.28;;;-0.55;68.26
15674;BME280;7937;48.090;16.212;2024-01-16T15:39:55;97107.50;;;-0.66;67.87
15674;BME280;7937;48.090;16.212;2024-01-16T15:42:59;97114.09;;;-0.70;69.57
15674;BME280;7937;48.090;16.212;2024-01-16T15:46:01;97119.88;;;-0.74;70.98
15674;BME280;7937;48.090;16.212;2024-01-16T15:49:05;97123.25;;;-0.81;70.97
15674;BME280;7937;48.090;16.212;2024-01-16T15:52:07;97127.84;;;-0.83;72.50
15674;BME280;7937;48.090;16.212;2024-01-16T15:55:10;97130.38;;;-0.89;71.00
15674;BME280;7937;48.090;16.212;2024-01-16T15:58:13;97131.50;;;-0.98;70.60
15674;BME280;7937;48.090;16.212;2024-01-16T16:01:15;97139.94;;;-0.96;71.38
15674;BME280;7937;48.090;16.212;2024-01-16T16:04:18;97124.09;;;-1.10;73.30
15674;BME280;7937;48.090;16.212;2024-01-16T16:07:20;97151.31;;;-1.04;72.70
15674;BME280;7937;48.090;16.212;2024-01-16T16:10:27;97151.69;;;-1.07;71.82
15674;BME280;7937;48.090;16.212;2024-01-16T16:13:29;97141.56;;;-1.10;71.63
15674;BME280;7937;48.090;16.212;2024-01-16T16:16:33;97138.88;;;-1.17;71.79
15674;BME280;7937;48.090;16.212;2024-01-16T16:19:36;97152.22;;;-1.12;72.80
15674;BME280;7937;48.090;16.212;2024-01-16T16:22:39;97124.22;;;-1.33;72.99
15674;BME280;7937;48.090;16.212;2024-01-16T16:25:45;97147.72;;;-1.18;72.99
15674;BME280;7937;48.090;16.212;2024-01-16T16:28:48;97141.03;;;-1.20;72.97
15674;BME280;7937;48.090;16.212;2024-01-16T16:31:51;97152.03;;;-1.25;73.69
15674;BME280;7937;48.090;16.212;2024-01-16T16:34:53;97153.56;;;-1.31;73.86
15674;BME280;7937;48.090;16.212;2024-01-16T16:37:56;97153.84;;;-1.40;75.35